Flugplatz Detmold

Für EDLJ sind keine METAR/TAF Berichte vorhanden.
Es werden die Flugwettermeldungen vom Flugplatz Buckeburg Airport in 39 km Entfernung angezeigt.

Bericht für ETHB

vom 23.08. um 12:20 UTC

Wind 4 kt aus 270°

Sichtweite 10 km oder mehr

gering bewölkt in 6000 ft

aufgelockert bewölkt in 40000 ft

Temperatur 27.0°C

Taupunkt 10.0°C

Luftfeuchtigkeit 34%

Luftdruck 1025 hPa

ETHB 231220Z 27004KT 9999 FEW060 SCT400 27/10 Q1025 BLU+

Prognose für ETHB

vom 23.08. um 00:00 UTC

Zwischen 00:00 UTC und 00:00 UTC

variable Windrichtung mit 3 kt

Sichtweite 10 km oder mehr

keine signifikanten Wettererscheinungen

gering bewölkt in 30000 ft

TAF AMD ETHB 231054Z 2305/2314 VRB03KT 9999 NSW FEW300 CANCEL 1000
Impressum